sensor_id;sensor_type;location;lat;lon;timestamp;temperature;humidity
11961;DHT22;6040;49.358;11.140;2023-03-01T00:01:34;-2.50;99.90
11961;DHT22;6040;49.358;11.140;2023-03-01T00:04:02;-2.50;99.90
11961;DHT22;6040;49.358;11.140;2023-03-01T00:06:29;-1.60;99.90
11961;DHT22;6040;49.358;11.140;2023-03-01T00:08:56;-2.40;99.90
11961;DHT22;6040;49.358;11.140;2023-03-01T00:11:24;-2.40;99.90
11961;DHT22;6040;49.358;11.140;2023-03-01T00:13:53;-2.40;99.90
11961;DHT22;6040;49.358;11.140;2023-03-01T00:16:22;-2.40;99.90
11961;DHT22;6040;49.358;11.140;2023-03-01T00:18:49;-2.50;99.90
11961;DHT22;6040;49.358;11.140;2023-03-01T00:21:20;-2.30;99.90
11961;DHT22;6040;49.358;11.140;2023-03-01T00:23:47;-2.20;99.90
11961;DHT22;6040;49.358;11.140;2023-03-01T00:26:16;-2.20;99.90
11961;DHT22;6040;49.358;11.140;2023-03-01T00:28:43;-2.20;99.90
11961;DHT22;6040;49.358;11.140;2023-03-01T00:31:12;-2.10;99.90
11961;DHT22;6040;49.358;11.140;2023-03-01T00:33:39;-2.10;99.90
11961;DHT22;6040;49.358;11.140;2023-03-01T00:36:07;-2.10;99.90
11961;DHT22;6040;49.358;11.140;2023-03-01T00:38:36;-2.00;99.90
11961;DHT22;6040;49.358;11.140;2023-03-01T00:41:04;-1.90;99.90
11961;DHT22;6040;49.358;11.140;2023-03-01T00:43:31;-1.90;99.90
11961;DHT22;6040;49.358;11.140;2023-03-01T00:46:02;-1.90;99.90
11961;DHT22;6040;49.358;11.140;2023-03-01T00:48:29;-0.20;99.90
11961;DHT22;6040;49.358;11.140;2023-03-01T00:50:55;-1.90;99.90
11961;DHT22;6040;49.358;11.140;2023-03-01T00:53:22;-1.90;99.90
11961;DHT22;6040;49.358;11.140;2023-03-01T00:55:51;-1.90;99.90
11961;DHT22;6040;49.358;11.140;2023-03-01T00:58:17;-1.90;99.90
11961;DHT22;6040;49.358;11.140;2023-03-01T01:00:44;-1.90;99.90
11961;DHT22;6040;49.358;11.140;2023-03-01T01:03:11;-1.90;99.90
11961;DHT22;6040;49.358;11.140;2023-03-01T01:05:38;-1.90;99.90
11961;DHT22;6040;49.358;11.140;2023-03-01T01:08:05;-1.90;99.90
11961;DHT22;6040;49.358;11.140;2023-03-01T01:10:33;-1.90;99.90
11961;DHT22;6040;49.358;11.140;2023-03-01T01:13:02;-1.90;99.90
11961;DHT22;6040;49.358;11.140;2023-03-01T01:15:29;-1.90;99.90
11961;DHT22;6040;49.358;11.140;2023-03-01T01:17:56;-2.00;99.90
11961;DHT22;6040;49.358;11.140;2023-03-01T01:20:23;-2.00;99.90
11961;DHT22;6040;49.358;11.140;2023-03-01T01:22:49;-2.00;99.90
11961;DHT22;6040;49.358;11.140;2023-03-01T01:25:17;-2.00;99.90
11961;DHT22;6040;49.358;11.140;2023-03-01T01:27:43;-2.00;99.90
11961;DHT22;6040;49.358;11.140;2023-03-01T01:30:12;-2.00;99.90
11961;DHT22;6040;49.358;11.140;2023-03-01T01:32:39;-2.00;99.90
11961;DHT22;6040;49.358;11.140;2023-03-01T01:35:06;-2.00;99.90
11961;DHT22;6040;49.358;11.140;2023-03-01T01:37:33;-2.00;99.90
11961;DHT22;6040;49.358;11.140;2023-03-01T01:40:01;-2.00;99.90
11961;DHT22;6040;49.358;11.140;2023-03-01T01:42:32;-2.00;99.90
11961;DHT22;6040;49.358;11.140;2023-03-01T01:45:30;-2.00;99.90
11961;DHT22;6040;49.358;11.140;2023-03-01T01:48:00;-2.00;99.90
11961;DHT22;6040;49.358;11.140;2023-03-01T01:50:29;-2.00;99.90
11961;DHT22;6040;49.358;11.140;2023-03-01T01:53:08;-2.10;99.90
11961;DHT22;6040;49.358;11.140;2023-03-01T01:55:37;-2.10;99.90
11961;DHT22;6040;49.358;11.140;2023-03-01T01:58:07;-2.10;99.90
11961;DHT22;6040;49.358;11.140;2023-03-01T02:00:37;-2.10;99.90
11961;DHT22;6040;49.358;11.140;2023-03-01T02:03:08;-2.10;99.90
11961;DHT22;6040;49.358;11.140;2023-03-01T02:05:40;-2.10;99.90
11961;DHT22;6040;49.358;11.140;2023-03-01T02:08:10;-2.10;99.90
11961;DHT22;6040;49.358;11.140;2023-03-01T02:10:38;-2.10;99.90
11961;DHT22;6040;49.358;11.140;2023-03-01T02:13:06;-2.20;99.90
11961;DHT22;6040;49.358;11.140;2023-03-01T02:15:36;-2.20;99.90
11961;DHT22;6040;49.358;11.140;2023-03-01T02:18:05;-2.10;99.90
11961;DHT22;6040;49.358;11.140;2023-03-01T02:20:35;-2.20;99.90
11961;DHT22;6040;49.358;11.140;2023-03-01T02:23:04;-2.20;99.90
11961;DHT22;6040;49.358;11.140;2023-03-01T02:25:38;-2.20;99.90
11961;DHT22;6040;49.358;11.140;2023-03-01T02:30:40;-2.20;99.90
11961;DHT22;6040;49.358;11.140;2023-03-01T02:33:27;-2.20;99.90
11961;DHT22;6040;49.358;11.140;2023-03-01T02:35:55;-0.10;99.90
11961;DHT22;6040;49.358;11.140;2023-03-01T02:38:23;-2.30;99.90
11961;DHT22;6040;49.358;11.140;2023-03-01T02:40:51;-2.30;99.90
11961;DHT22;6040;49.358;11.140;2023-03-01T02:43:19;-2.30;99.90
11961;DHT22;6040;49.358;11.140;2023-03-01T02:45:51;-2.30;99.90
11961;DHT22;6040;49.358;11.140;2023-03-01T02:48:18;-2.30;99.90
11961;DHT22;6040;49.358;11.140;2023-03-01T02:50:55;-2.30;99.90
11961;DHT22;6040;49.358;11.140;2023-03-01T02:53:33;-2.30;99.90
11961;DHT22;6040;49.358;11.140;2023-03-01T02:56:01;-2.30;99.90
11961;DHT22;6040;49.358;11.140;2023-03-01T02:58:28;-2.40;99.90
11961;DHT22;6040;49.358;11.140;2023-03-01T03:00:56;-2.30;99.90
11961;DHT22;6040;49.358;11.140;2023-03-01T03:03:26;-2.40;99.90
11961;DHT22;6040;49.358;11.140;2023-03-01T03:05:53;-2.40;99.90
11961;DHT22;6040;49.358;11.140;2023-03-01T03:08:19;-2.40;99.90
11961;DHT22;6040;49.358;11.140;2023-03-01T03:10:49;-2.40;99.90
11961;DHT22;6040;49.358;11.140;2023-03-01T03:13:16;-2.40;99.90
11961;DHT22;6040;49.358;11.140;2023-03-01T03:15:44;-2.40;99.90
11961;DHT22;6040;49.358;11.140;2023-03-01T03:18:14;-2.40;99.90
11961;DHT22;6040;49.358;11.140;2023-03-01T03:20:42;-2.40;99.90
11961;DHT22;6040;49.358;11.140;2023-03-01T03:23:10;-2.40;99.90
11961;DHT22;6040;49.358;11.140;2023-03-01T03:25:37;-2.40;99.90
11961;DHT22;6040;49.358;11.140;2023-03-01T03:28:05;-2.40;99.90
11961;DHT22;6040;49.358;11.140;2023-03-01T03:30:37;-2.40;99.90
11961;DHT22;6040;49.358;11.140;2023-03-01T03:33:05;-2.40;99.90
11961;DHT22;6040;49.358;11.140;2023-03-01T03:35:37;-2.40;99.90
11961;DHT22;6040;49.358;11.140;2023-03-01T03:38:07;-2.40;99.90
11961;DHT22;6040;49.358;11.140;2023-03-01T03:40:42;-2.40;99.90
11961;DHT22;6040;49.358;11.140;2023-03-01T03:43:13;-2.40;99.90
11961;DHT22;6040;49.358;11.140;2023-03-01T03:45:40;-2.40;99.90
11961;DHT22;6040;49.358;11.140;2023-03-01T03:48:08;-2.40;99.90
11961;DHT22;6040;49.358;11.140;2023-03-01T03:50:38;-2.40;99.90
11961;DHT22;6040;49.358;11.140;2023-03-01T03:53:07;-2.40;99.90
11961;DHT22;6040;49.358;11.140;2023-03-01T03:55:35;-2.40;99.90
11961;DHT22;6040;49.358;11.140;2023-03-01T03:58:06;-2.40;99.90
11961;DHT22;6040;49.358;11.140;2023-03-01T04:00:34;-2.40;99.90
11961;DHT22;6040;49.358;11.140;2023-03-01T04:03:02;-2.40;99.90
11961;DHT22;6040;49.358;11.140;2023-03-01T04:05:29;-2.40;99.90
11961;DHT22;6040;49.358;11.140;2023-03-01T04:07:57;-2.40;99.90
11961;DHT22;6040;49.358;11.140;2023-03-01T04:10:28;0.40;99.90
11961;DHT22;6040;49.358;11.140;2023-03-01T04:12:55;-2.40;99.90
11961;DHT22;6040;49.358;11.140;2023-03-01T04:15:23;-2.40;99.90
11961;DHT22;6040;49.358;11.140;2023-03-01T04:17:52;-2.50;99.90
11961;DHT22;6040;49.358;11.140;2023-03-01T04:20:21;-2.50;99.90
11961;DHT22;6040;49.358;11.140;2023-03-01T04:22:51;-2.40;99.90
11961;DHT22;6040;49.358;11.140;2023-03-01T04:25:20;-2.40;99.90
11961;DHT22;6040;49.358;11.140;2023-03-01T04:27:46;-2.40;99.90
11961;DHT22;6040;49.358;11.140;2023-03-01T04:30:14;-2.40;99.90
11961;DHT22;6040;49.358;11.140;2023-03-01T04:32:41;-2.40;99.90
11961;DHT22;6040;49.358;11.140;2023-03-01T04:35:08;-2.40;99.90
11961;DHT22;6040;49.358;11.140;2023-03-01T04:37:35;-2.40;99.90
11961;DHT22;6040;49.358;11.140;2023-03-01T04:40:03;-2.40;99.90
11961;DHT22;6040;49.358;11.140;2023-03-01T04:42:39;-2.40;99.90
11961;DHT22;6040;49.358;11.140;2023-03-01T04:45:07;-2.40;99.90
11961;DHT22;6040;49.358;11.140;2023-03-01T04:47:39;-2.40;99.90
11961;DHT22;6040;49.358;11.140;2023-03-01T04:50:07;-2.40;99.90
11961;DHT22;6040;49.358;11.140;2023-03-01T04:52:34;-2.40;99.90
11961;DHT22;6040;49.358;11.140;2023-03-01T04:55:01;-2.50;99.90
11961;DHT22;6040;49.358;11.140;2023-03-01T04:57:29;-2.50;99.90
11961;DHT22;6040;49.358;11.140;2023-03-01T04:59:58;-2.50;99.90
11961;DHT22;6040;49.358;11.140;2023-03-01T05:02:25;-2.50;99.90
11961;DHT22;6040;49.358;11.140;2023-03-01T05:04:55;-2.50;99.90
11961;DHT22;6040;49.358;11.140;2023-03-01T05:07:23;-2.60;99.90
11961;DHT22;6040;49.358;11.140;2023-03-01T05:09:51;-2.70;99.90
11961;DHT22;6040;49.358;11.140;2023-03-01T05:12:19;-2.60;99.90
11961;DHT22;6040;49.358;11.140;2023-03-01T05:14:46;-2.60;99.90
11961;DHT22;6040;49.358;11.140;2023-03-01T05:17:14;-2.60;99.90
11961;DHT22;6040;49.358;11.140;2023-03-01T05:19:41;-2.60;99.90
11961;DHT22;6040;49.358;11.140;2023-03-01T05:22:08;-0.70;99.90
11961;DHT22;6040;49.358;11.140;2023-03-01T05:24:36;-2.60;99.90
11961;DHT22;6040;49.358;11.140;2023-03-01T05:27:04;-2.60;99.90
11961;DHT22;6040;49.358;11.140;2023-03-01T05:29:31;-2.60;99.90
11961;DHT22;6040;49.358;11.140;2023-03-01T05:32:01;-2.60;99.90
11961;DHT22;6040;49.358;11.140;2023-03-01T05:34:32;-2.60;99.90
11961;DHT22;6040;49.358;11.140;2023-03-01T05:36:59;-2.60;99.90
11961;DHT22;6040;49.358;11.140;2023-03-01T05:39:27;-2.60;99.90
11961;DHT22;6040;49.358;11.140;2023-03-01T05:41:56;-2.60;99.90
11961;DHT22;6040;49.358;11.140;2023-03-01T05:44:24;-2.60;99.90
11961;DHT22;6040;49.358;11.140;2023-03-01T05:46:51;-2.60;99.90
11961;DHT22;6040;49.358;11.140;2023-03-01T05:49:18;-2.60;99.90
11961;DHT22;6040;49.358;11.140;2023-03-01T05:51:49;-2.70;99.90
11961;DHT22;6040;49.358;11.140;2023-03-01T05:54:17;-2.70;99.90
11961;DHT22;6040;49.358;11.140;2023-03-01T05:56:44;-2.60;99.90
11961;DHT22;6040;49.358;11.140;2023-03-01T05:59:12;-2.70;99.90
11961;DHT22;6040;49.358;11.140;2023-03-01T06:01:40;-2.60;99.90
11961;DHT22;6040;49.358;11.140;2023-03-01T06:04:07;-2.60;99.90
11961;DHT22;6040;49.358;11.140;2023-03-01T06:06:37;-2.60;99.90
11961;DHT22;6040;49.358;11.140;2023-03-01T06:09:06;-2.70;99.90
11961;DHT22;6040;49.358;11.140;2023-03-01T06:11:35;-2.60;99.90
11961;DHT22;6040;49.358;11.140;2023-03-01T06:14:02;-2.60;99.90
11961;DHT22;6040;49.358;11.140;2023-03-01T06:16:29;-2.60;99.90
11961;DHT22;6040;49.358;11.140;2023-03-01T06:18:56;-2.60;99.90
11961;DHT22;6040;49.358;11.140;2023-03-01T06:21:23;-2.60;99.90
11961;DHT22;6040;49.358;11.140;2023-03-01T06:23:50;-2.50;99.90
11961;DHT22;6040;49.358;11.140;2023-03-01T06:26:19;-2.50;99.90
11961;DHT22;6040;49.358;11.140;2023-03-01T06:28:45;-2.50;99.90
11961;DHT22;6040;49.358;11.140;2023-03-01T06:31:12;-2.40;99.90
11961;DHT22;6040;49.358;11.140;2023-03-01T06:33:39;-2.00;99.90
11961;DHT22;6040;49.358;11.140;2023-03-01T06:36:07;-1.30;99.90
11961;DHT22;6040;49.358;11.140;2023-03-01T06:38:37;-0.40;99.90
11961;DHT22;6040;49.358;11.140;2023-03-01T06:41:06;0.70;99.90
11961;DHT22;6040;49.358;11.140;2023-03-01T06:43:34;1.80;99.90
11961;DHT22;6040;49.358;11.140;2023-03-01T06:46:04;2.80;99.90
11961;DHT22;6040;49.358;11.140;2023-03-01T06:48:30;3.60;99.70
11961;DHT22;6040;49.358;11.140;2023-03-01T06:50:58;4.50;98.30
11961;DHT22;6040;49.358;11.140;2023-03-01T06:53:26;5.20;97.50
11961;DHT22;6040;49.358;11.140;2023-03-01T06:55:54;5.90;95.80
11961;DHT22;6040;49.358;11.140;2023-03-01T06:58:21;6.40;95.30
11961;DHT22;6040;49.358;11.140;2023-03-01T07:00:49;7.20;94.70
11961;DHT22;6040;49.358;11.140;2023-03-01T07:03:16;7.70;93.20
11961;DHT22;6040;49.358;11.140;2023-03-01T07:05:43;8.20;92.40
11961;DHT22;6040;49.358;11.140;2023-03-01T07:08:11;8.90;92.30
11961;DHT22;6040;49.358;11.140;2023-03-01T07:10:37;9.40;91.00
11961;DHT22;6040;49.358;11.140;2023-03-01T07:13:04;11.20;90.70
11961;DHT22;6040;49.358;11.140;2023-03-01T07:15:32;9.70;86.90
11961;DHT22;6040;49.358;11.140;2023-03-01T07:18:00;9.50;90.20
11961;DHT22;6040;49.358;11.140;2023-03-01T07:20:27;10.90;89.30
11961;DHT22;6040;49.358;11.140;2023-03-01T07:22:55;10.90;87.10
11961;DHT22;6040;49.358;11.140;2023-03-01T07:25:24;12.30;84.80
11961;DHT22;6040;49.358;11.140;2023-03-01T07:27:51;11.20;82.10
11961;DHT22;6040;49.358;11.140;2023-03-01T07:30:18;11.90;85.80
11961;DHT22;6040;49.358;11.140;2023-03-01T07:32:45;9.30;86.10
11961;DHT22;6040;49.358;11.140;2023-03-01T07:35:13;8.60;87.40
11961;DHT22;6040;49.358;11.140;2023-03-01T07:37:41;8.40;91.10
11961;DHT22;6040;49.358;11.140;2023-03-01T07:40:09;9.00;88.80
11961;DHT22;6040;49.358;11.140;2023-03-01T07:42:36;8.80;89.00
11961;DHT22;6040;49.358;11.140;2023-03-01T07:45:03;9.90;88.00
11961;DHT22;6040;49.358;11.140;2023-03-01T07:47:30;10.20;85.80
11961;DHT22;6040;49.358;11.140;2023-03-01T07:49:57;10.20;83.80
11961;DHT22;6040;49.358;11.140;2023-03-01T07:52:26;10.00;86.30
11961;DHT22;6040;49.358;11.140;2023-03-01T07:54:52;9.90;84.00
11961;DHT22;6040;49.358;11.140;2023-03-01T07:57:19;9.90;87.00
11961;DHT22;6040;49.358;11.140;2023-03-01T07:59:46;10.50;86.10
11961;DHT22;6040;49.358;11.140;2023-03-01T08:02:13;10.00;84.50
11961;DHT22;6040;49.358;11.140;2023-03-01T08:04:41;11.30;89.60
11961;DHT22;6040;49.358;11.140;2023-03-01T08:07:08;9.70;86.90
11961;DHT22;6040;49.358;11.140;2023-03-01T08:09:36;8.50;87.50
11961;DHT22;6040;49.358;11.140;2023-03-01T08:12:03;7.80;90.60
11961;DHT22;6040;49.358;11.140;2023-03-01T08:14:31;7.20;90.30
11961;DHT22;6040;49.358;11.140;2023-03-01T08:16:57;7.80;91.60
11961;DHT22;6040;49.358;11.140;2023-03-01T08:19:24;5.60;92.90
11961;DHT22;6040;49.358;11.140;2023-03-01T08:21:53;6.60;93.20
11961;DHT22;6040;49.358;11.140;2023-03-01T08:24:20;6.10;94.00
11961;DHT22;6040;49.358;11.140;2023-03-01T08:26:49;6.50;93.20
11961;DHT22;6040;49.358;11.140;2023-03-01T08:29:16;6.10;91.80
11961;DHT22;6040;49.358;11.140;2023-03-01T08:31:43;6.30;92.40
11961;DHT22;6040;49.358;11.140;2023-03-01T08:34:12;6.30;92.00
11961;DHT22;6040;49.358;11.140;2023-03-01T08:36:40;7.00;93.60
11961;DHT22;6040;49.358;11.140;2023-03-01T08:39:09;7.30;91.20
11961;DHT22;6040;49.358;11.140;2023-03-01T08:41:36;7.00;91.00
11961;DHT22;6040;49.358;11.140;2023-03-01T08:44:04;6.50;91.00
11961;DHT22;6040;49.358;11.140;2023-03-01T08:46:33;6.00;90.90
11961;DHT22;6040;49.358;11.140;2023-03-01T08:49:03;5.70;91.80
11961;DHT22;6040;49.358;11.140;2023-03-01T08:51:31;5.90;92.20
11961;DHT22;6040;49.358;11.140;2023-03-01T08:54:02;5.80;92.00
11961;DHT22;6040;49.358;11.140;2023-03-01T08:56:29;6.00;92.30
11961;DHT22;6040;49.358;11.140;2023-03-01T08:58:56;6.30;92.20
11961;DHT22;6040;49.358;11.140;2023-03-01T09:01:24;6.60;93.50
11961;DHT22;6040;49.358;11.140;2023-03-01T09:03:51;7.10;91.80
11961;DHT22;6040;49.358;11.140;2023-03-01T09:06:18;9.20;91.70
11961;DHT22;6040;49.358;11.140;2023-03-01T09:08:46;7.40;90.50
11961;DHT22;6040;49.358;11.140;2023-03-01T09:11:14;7.80;90.80
11961;DHT22;6040;49.358;11.140;2023-03-01T09:13:42;8.00;90.50
11961;DHT22;6040;49.358;11.140;2023-03-01T09:16:10;8.30;90.70
11961;DHT22;6040;49.358;11.140;2023-03-01T09:18:39;8.70;90.80
11961;DHT22;6040;49.358;11.140;2023-03-01T09:21:07;9.10;90.40
11961;DHT22;6040;49.358;11.140;2023-03-01T09:23:34;9.30;87.10
11961;DHT22;6040;49.358;11.140;2023-03-01T09:26:04;8.80;84.70
11961;DHT22;6040;49.358;11.140;2023-03-01T09:28:31;8.30;87.30
11961;DHT22;6040;49.358;11.140;2023-03-01T09:30:58;8.50;90.20
11961;DHT22;6040;49.358;11.140;2023-03-01T09:33:26;8.90;90.10
11961;DHT22;6040;49.358;11.140;2023-03-01T09:35:57;9.20;86.10
11961;DHT22;6040;49.358;11.140;2023-03-01T09:38:24;8.80;86.10
11961;DHT22;6040;49.358;11.140;2023-03-01T09:40:51;8.60;87.00
11961;DHT22;6040;49.358;11.140;2023-03-01T09:43:23;8.70;87.30
11961;DHT22;6040;49.358;11.140;2023-03-01T09:45:51;8.50;87.90
11961;DHT22;6040;49.358;11.140;2023-03-01T09:48:22;8.80;88.00
11961;DHT22;6040;49.358;11.140;2023-03-01T09:50:50;9.00;85.40
11961;DHT22;6040;49.358;11.140;2023-03-01T09:53:22;9.00;87.30
11961;DHT22;6040;49.358;11.140;2023-03-01T09:55:53;10.10;89.30
11961;DHT22;6040;49.358;11.140;2023-03-01T09:58:47;9.70;87.70
11961;DHT22;6040;49.358;11.140;2023-03-01T10:01:30;9.50;83.10
11961;DHT22;6040;49.358;11.140;2023-03-01T10:04:16;8.70;85.20
11961;DHT22;6040;49.358;11.140;2023-03-01T10:07:01;9.20;88.50
11961;DHT22;6040;49.358;11.140;2023-03-01T10:09:33;9.30;84.10
11961;DHT22;6040;49.358;11.140;2023-03-01T10:12:02;9.70;87.40
11961;DHT22;6040;49.358;11.140;2023-03-01T10:14:34;9.60;84.90
11961;DHT22;6040;49.358;11.140;2023-03-01T10:17:03;10.10;84.50
11961;DHT22;6040;49.358;11.140;2023-03-01T10:19:33;10.30;83.70
11961;DHT22;6040;49.358;11.140;2023-03-01T10:22:05;10.00;80.00
11961;DHT22;6040;49.358;11.140;2023-03-01T10:24:37;9.40;83.70
11961;DHT22;6040;49.358;11.140;2023-03-01T10:27:07;9.40;82.00
11961;DHT22;6040;49.358;11.140;2023-03-01T10:29:41;9.10;82.30
11961;DHT22;6040;49.358;11.140;2023-03-01T10:32:10;9.10;85.40
11961;DHT22;6040;49.358;11.140;2023-03-01T10:34:37;9.40;85.00
11961;DHT22;6040;49.358;11.140;2023-03-01T10:37:10;9.20;83.90
11961;DHT22;6040;49.358;11.140;2023-03-01T10:39:55;9.20;84.10
11961;DHT22;6040;49.358;11.140;2023-03-01T10:42:26;9.60;83.90
11961;DHT22;6040;49.358;11.140;2023-03-01T10:44:54;9.80;85.00
11961;DHT22;6040;49.358;11.140;2023-03-01T10:47:22;10.40;82.00
11961;DHT22;6040;49.358;11.140;2023-03-01T10:50:00;10.20;82.50
11961;DHT22;6040;49.358;11.140;2023-03-01T10:52:31;10.10;81.80
11961;DHT22;6040;49.358;11.140;2023-03-01T10:55:02;9.80;81.90
11961;DHT22;6040;49.358;11.140;2023-03-01T10:57:41;10.10;83.70
11961;DHT22;6040;49.358;11.140;2023-03-01T11:00:20;10.80;83.50
11961;DHT22;6040;49.358;11.140;2023-03-01T11:02:49;11.00;79.40
11961;DHT22;6040;49.358;11.140;2023-03-01T11:05:19;12.10;80.90
11961;DHT22;6040;49.358;11.140;2023-03-01T11:07:50;10.80;82.90
11961;DHT22;6040;49.358;11.140;2023-03-01T11:10:22;10.80;81.80
11961;DHT22;6040;49.358;11.140;2023-03-01T11:12:50;10.90;83.50
11961;DHT22;6040;49.358;11.140;2023-03-01T11:15:25;11.40;81.90
11961;DHT22;6040;49.358;11.140;2023-03-01T11:17:53;11.20;78.30
11961;DHT22;6040;49.358;11.140;2023-03-01T11:20:25;11.40;79.00
11961;DHT22;6040;49.358;11.140;2023-03-01T11:22:54;11.40;77.60
11961;DHT22;6040;49.358;11.140;2023-03-01T11:25:26;11.50;80.40
11961;DHT22;6040;49.358;11.140;2023-03-01T11:27:54;11.60;79.50
11961;DHT22;6040;49.358;11.140;2023-03-01T11:30:25;11.40;78.40
11961;DHT22;6040;49.358;11.140;2023-03-01T11:33:03;11.30;80.00
11961;DHT22;6040;49.358;11.140;2023-03-01T11:35:34;11.90;81.90
11961;DHT22;6040;49.358;11.140;2023-03-01T11:38:15;11.50;78.60
11961;DHT22;6040;49.358;11.140;2023-03-01T11:40:47;10.90;79.20
11961;DHT22;6040;49.358;11.140;2023-03-01T11:43:23;12.70;79.90
11961;DHT22;6040;49.358;11.140;2023-03-01T11:46:23;11.60;80.00
11961;DHT22;6040;49.358;11.140;2023-03-01T11:49:03;11.90;80.20
11961;DHT22;6040;49.358;11.140;2023-03-01T11:51:42;12.20;77.90
11961;DHT22;6040;49.358;11.140;2023-03-01T11:54:26;12.10;78.50
11961;DHT22;6040;49.358;11.140;2023-03-01T11:57:00;12.30;78.90
11961;DHT22;6040;49.358;11.140;2023-03-01T12:02:51;12.60;78.00
11961;DHT22;6040;49.358;11.140;2023-03-01T12:08:17;12.70;76.10
11961;DHT22;6040;49.358;11.140;2023-03-01T12:10:55;12.70;76.20
11961;DHT22;6040;49.358;11.140;2023-03-01T12:13:41;12.50;76.70
11961;DHT22;6040;49.358;11.140;2023-03-01T12:16:22;12.60;77.00
11961;DHT22;6040;49.358;11.140;2023-03-01T12:19:13;12.40;73.20
11961;DHT22;6040;49.358;11.140;2023-03-01T12:22:05;12.20;76.20
11961;DHT22;6040;49.358;11.140;2023-03-01T12:24:55;12.40;79.10
11961;DHT22;6040;49.358;11.140;2023-03-01T12:27:48;12.60;74.40
11961;DHT22;6040;49.358;11.140;2023-03-01T12:30:26;12.50;76.60
11961;DHT22;6040;49.358;11.140;2023-03-01T12:33:11;12.60;74.20
11961;DHT22;6040;49.358;11.140;2023-03-01T12:35:55;12.80;73.20
11961;DHT22;6040;49.358;11.140;2023-03-01T12:38:33;11.90;74.40
11961;DHT22;6040;49.358;11.140;2023-03-01T12:41:26;11.60;77.60
11961;DHT22;6040;49.358;11.140;2023-03-01T12:44:04;11.80;78.10
11961;DHT22;6040;49.358;11.140;2023-03-01T12:46:47;12.00;77.30
11961;DHT22;6040;49.358;11.140;2023-03-01T12:49:20;13.00;75.80
11961;DHT22;6040;49.358;11.140;2023-03-01T12:51:54;12.00;76.70
11961;DHT22;6040;49.358;11.140;2023-03-01T12:54:26;11.60;76.80
11961;DHT22;6040;49.358;11.140;2023-03-01T12:56:55;11.40;77.90
11961;DHT22;6040;49.358;11.140;2023-03-01T12:59:29;11.20;78.90
11961;DHT22;6040;49.358;11.140;2023-03-01T13:02:08;11.10;78.90
11961;DHT22;6040;49.358;11.140;2023-03-01T13:04:45;10.70;80.70
11961;DHT22;6040;49.358;11.140;2023-03-01T13:07:25;10.80;80.30
11961;DHT22;6040;49.358;11.140;2023-03-01T13:10:02;10.80;80.30
11961;DHT22;6040;49.358;11.140;2023-03-01T13:12:50;11.40;81.40
11961;DHT22;6040;49.358;11.140;2023-03-01T13:15:28;11.20;80.20
11961;DHT22;6040;49.358;11.140;2023-03-01T13:17:58;11.30;81.50
11961;DHT22;6040;49.358;11.140;2023-03-01T13:20:30;11.50;78.30
11961;DHT22;6040;49.358;11.140;2023-03-01T13:23:03;11.60;81.00
11961;DHT22;6040;49.358;11.140;2023-03-01T13:25:30;11.50;80.90
11961;DHT22;6040;49.358;11.140;2023-03-01T13:28:38;11.20;81.80
11961;DHT22;6040;49.358;11.140;2023-03-01T13:31:07;11.30;80.90
11961;DHT22;6040;49.358;11.140;2023-03-01T13:33:41;11.20;80.70
11961;DHT22;6040;49.358;11.140;2023-03-01T13:36:10;11.00;82.10
11961;DHT22;6040;49.358;11.140;2023-03-01T13:38:55;10.90;82.40
11961;DHT22;6040;49.358;11.140;2023-03-01T13:41:51;10.90;82.60
11961;DHT22;6040;49.358;11.140;2023-03-01T13:44:23;10.60;82.80
11961;DHT22;6040;49.358;11.140;2023-03-01T13:46:53;10.80;84.00
11961;DHT22;6040;49.358;11.140;2023-03-01T13:49:25;12.10;84.20
11961;DHT22;6040;49.358;11.140;2023-03-01T13:51:53;10.50;83.30
11961;DHT22;6040;49.358;11.140;2023-03-01T13:54:26;10.20;84.60
11961;DHT22;6040;49.358;11.140;2023-03-01T13:56:55;10.10;86.30
11961;DHT22;6040;49.358;11.140;2023-03-01T13:59:22;10.10;86.30
11961;DHT22;6040;49.358;11.140;2023-03-01T14:01:52;10.10;85.50
11961;DHT22;6040;49.358;11.140;2023-03-01T14:04:24;10.20;86.00
11961;DHT22;6040;49.358;11.140;2023-03-01T14:09:37;10.60;86.80
11961;DHT22;6040;49.358;11.140;2023-03-01T14:12:26;10.10;86.60
11961;DHT22;6040;49.358;11.140;2023-03-01T14:14:59;10.10;88.00
11961;DHT22;6040;49.358;11.140;2023-03-01T14:17:47;10.00;88.10
11961;DHT22;6040;49.358;11.140;2023-03-01T14:20:20;10.10;86.50
11961;DHT22;6040;49.358;11.140;2023-03-01T14:22:49;9.90;87.30
11961;DHT22;6040;49.358;11.140;2023-03-01T14:25:26;9.60;88.00
11961;DHT22;6040;49.358;11.140;2023-03-01T14:27:59;9.40;89.30
11961;DHT22;6040;49.358;11.140;2023-03-01T14:30:31;8.50;89.00
11961;DHT22;6040;49.358;11.140;2023-03-01T14:33:00;9.10;90.20
11961;DHT22;6040;49.358;11.140;2023-03-01T14:35:30;9.10;90.00
11961;DHT22;6040;49.358;11.140;2023-03-01T14:37:57;9.10;89.70
11961;DHT22;6040;49.358;11.140;2023-03-01T14:40:27;10.10;90.20
11961;DHT22;6040;49.358;11.140;2023-03-01T14:42:56;9.10;90.00
11961;DHT22;6040;49.358;11.140;2023-03-01T14:45:25;9.00;90.00
11961;DHT22;6040;49.358;11.140;2023-03-01T14:47:53;9.40;90.80
11961;DHT22;6040;49.358;11.140;2023-03-01T14:50:25;8.90;90.60
11961;DHT22;6040;49.358;11.140;2023-03-01T14:52:57;8.90;90.70
11961;DHT22;6040;49.358;11.140;2023-03-01T14:55:27;8.80;91.00
11961;DHT22;6040;49.358;11.140;2023-03-01T14:57:57;8.80;91.20
11961;DHT22;6040;49.358;11.140;2023-03-01T15:00:27;8.70;90.90
11961;DHT22;6040;49.358;11.140;2023-03-01T15:02:55;8.60;91.00
11961;DHT22;6040;49.358;11.140;2023-03-01T15:05:27;8.50;91.20
11961;DHT22;6040;49.358;11.140;2023-03-01T15:07:57;8.40;91.50
11961;DHT22;6040;49.358;11.140;2023-03-01T15:10:27;8.40;91.70
11961;DHT22;6040;49.358;11.140;2023-03-01T15:12:55;8.40;91.70
11961;DHT22;6040;49.358;11.140;2023-03-01T15:15:37;8.40;91.70
11961;DHT22;6040;49.358;11.140;2023-03-01T15:18:13;8.40;92.00
11961;DHT22;6040;49.358;11.140;2023-03-01T15:20:41;8.40;91.70
11961;DHT22;6040;49.358;11.140;2023-03-01T15:23:21;8.50;91.90
11961;DHT22;6040;49.358;11.140;2023-03-01T15:25:49;8.40;91.70
11961;DHT22;6040;49.358;11.140;2023-03-01T15:28:23;8.40;92.00
11961;DHT22;6040;49.358;11.140;2023-03-01T15:31:00;8.20;92.10
11961;DHT22;6040;49.358;11.140;2023-03-01T15:33:33;8.20;91.90
11961;DHT22;6040;49.358;11.140;2023-03-01T15:36:03;8.20;92.30
11961;DHT22;6040;49.358;11.140;2023-03-01T15:38:33;8.10;92.40
11961;DHT22;6040;49.358;11.140;2023-03-01T15:41:05;8.00;92.30
11961;DHT22;6040;49.358;11.140;2023-03-01T15:43:46;7.90;92.40
11961;DHT22;6040;49.358;11.140;2023-03-01T15:46:21;7.80;92.50
11961;DHT22;6040;49.358;11.140;2023-03-01T15:48:53;8.70;92.90
11961;DHT22;6040;49.358;11.140;2023-03-01T15:51:27;7.80;93.00
11961;DHT22;6040;49.358;11.140;2023-03-01T15:53:59;7.80;92.50
11961;DHT22;6040;49.358;11.140;2023-03-01T15:56:27;7.70;92.80
11961;DHT22;6040;49.358;11.140;2023-03-01T15:58:57;7.70;93.00
11961;DHT22;6040;49.358;11.140;2023-03-01T16:01:25;7.70;93.10
11961;DHT22;6040;49.358;11.140;2023-03-01T16:03:52;7.70;93.00
11961;DHT22;6040;49.358;11.140;2023-03-01T16:06:19;7.60;92.90
11961;DHT22;6040;49.358;11.140;2023-03-01T16:08:46;7.60;93.10